createdAt,value
2022-10-24T00:02:44.331Z,16.10
2022-10-24T00:05:29.852Z,16.20
2022-10-24T00:08:16.568Z,16.20
2022-10-24T00:11:02.038Z,16.30
2022-10-24T00:13:47.644Z,16.30
2022-10-24T00:16:32.771Z,16.40
2022-10-24T00:19:18.547Z,16.50
2022-10-24T00:22:03.792Z,16.50
2022-10-24T00:24:49.218Z,16.60
2022-10-24T00:27:36.181Z,16.70
2022-10-24T00:30:21.489Z,16.70
2022-10-24T00:33:07.236Z,16.70
2022-10-24T00:35:52.605Z,16.80
2022-10-24T00:38:38.233Z,16.90
2022-10-24T00:41:35.869Z,16.90
2022-10-24T00:44:33.605Z,16.90
2022-10-24T00:47:27.151Z,16.90
2022-10-24T00:50:15.003Z,17.00
2022-10-24T00:53:01.159Z,17.00
2022-10-24T00:55:49.793Z,17.00
2022-10-24T00:58:37.292Z,17.00
2022-10-24T01:01:25.675Z,17.00
2022-10-24T01:04:13.551Z,17.00
2022-10-24T01:07:41.217Z,17.00
2022-10-24T01:10:37.437Z,17.00
2022-10-24T01:13:39.700Z,17.00
2022-10-24T01:17:19.455Z,17.00
2022-10-24T01:20:23.278Z,17.00
2022-10-24T01:23:54.301Z,17.00
2022-10-24T01:27:04.223Z,17.00
2022-10-24T01:30:15.268Z,17.00
2022-10-24T01:33:11.311Z,17.10
2022-10-24T01:36:07.287Z,17.20
2022-10-24T01:38:59.850Z,17.20
2022-10-24T01:41:47.077Z,17.30
2022-10-24T01:44:44.367Z,17.30
2022-10-24T01:47:37.363Z,17.30
2022-10-24T01:50:25.323Z,17.20
2022-10-24T01:53:12.754Z,17.10
2022-10-24T01:55:59.248Z,17.10
2022-10-24T01:58:45.721Z,17.00
2022-10-24T02:01:33.399Z,16.90
2022-10-24T02:04:23.476Z,16.90
2022-10-24T02:07:11.727Z,17.00
2022-10-24T02:10:03.959Z,16.90
2022-10-24T02:12:54.255Z,16.90
2022-10-24T02:15:45.051Z,16.90
2022-10-24T02:18:32.720Z,17.00
2022-10-24T02:21:35.124Z,17.00
2022-10-24T02:24:25.956Z,17.10
2022-10-24T02:27:21.799Z,17.10
2022-10-24T02:30:19.030Z,17.20
2022-10-24T02:33:04.944Z,17.20
2022-10-24T02:35:52.748Z,17.20
2022-10-24T02:38:44.787Z,17.40
2022-10-24T02:41:35.357Z,17.30
2022-10-24T02:44:22.018Z,17.30
2022-10-24T02:47:11.357Z,17.30
2022-10-24T02:49:56.794Z,17.40
2022-10-24T02:52:48.752Z,17.40
2022-10-24T02:55:33.932Z,17.40
2022-10-24T02:58:19.877Z,17.40
2022-10-24T03:01:05.503Z,17.40
2022-10-24T03:03:50.741Z,17.30
2022-10-24T03:06:36.027Z,17.30
2022-10-24T03:09:21.386Z,17.30
2022-10-24T03:12:17.076Z,17.30
2022-10-24T03:15:02.431Z,17.30
2022-10-24T03:17:49.180Z,17.30
2022-10-24T03:20:34.591Z,17.30
2022-10-24T03:23:22.848Z,17.20
2022-10-24T03:26:08.275Z,17.20
2022-10-24T03:28:53.876Z,17.20
2022-10-24T03:31:40.236Z,17.20
2022-10-24T03:34:25.518Z,17.20
2022-10-24T03:37:11.019Z,17.10
2022-10-24T03:39:56.475Z,17.10
2022-10-24T03:42:42.139Z,17.20
2022-10-24T03:45:27.765Z,17.20
2022-10-24T03:48:13.396Z,17.30
2022-10-24T03:50:59.012Z,17.30
2022-10-24T03:53:44.533Z,17.40
2022-10-24T03:56:30.459Z,17.50
2022-10-24T03:59:16.218Z,17.40
2022-10-24T04:02:02.989Z,17.50
2022-10-24T04:04:51.159Z,17.50
2022-10-24T04:07:36.705Z,17.60
2022-10-24T04:10:24.723Z,17.50
2022-10-24T04:13:10.805Z,17.50
2022-10-24T04:15:56.325Z,17.50
2022-10-24T04:18:42.365Z,17.50
2022-10-24T04:21:27.706Z,17.60
2022-10-24T04:24:12.841Z,17.60
2022-10-24T04:26:58.562Z,17.70
2022-10-24T04:29:44.047Z,17.70
2022-10-24T04:32:32.399Z,17.70
2022-10-24T04:35:18.681Z,17.70
2022-10-24T04:38:04.228Z,17.70
2022-10-24T04:40:52.655Z,17.70
2022-10-24T04:43:38.031Z,17.80
2022-10-24T04:46:24.543Z,17.90
2022-10-24T04:49:30.309Z,17.80
2022-10-24T04:52:15.450Z,17.90
2022-10-24T04:55:00.971Z,17.90
2022-10-24T04:57:46.720Z,17.90
2022-10-24T05:00:32.508Z,17.90
2022-10-24T05:03:18.740Z,17.80
2022-10-24T05:06:08.799Z,17.80
2022-10-24T05:08:54.399Z,17.80
2022-10-24T05:11:40.204Z,17.80
2022-10-24T05:14:25.377Z,17.80
2022-10-24T05:17:11.028Z,17.80
2022-10-24T05:19:56.651Z,17.80
2022-10-24T05:22:42.312Z,17.80
2022-10-24T05:25:27.932Z,17.70
2022-10-24T05:28:13.288Z,17.70
2022-10-24T05:30:59.202Z,17.70
2022-10-24T05:33:44.711Z,17.70
2022-10-24T05:36:30.421Z,17.60
2022-10-24T05:39:15.748Z,17.50
2022-10-24T05:42:01.158Z,17.40
2022-10-24T05:44:46.920Z,17.50
2022-10-24T05:47:32.100Z,17.40
2022-10-24T05:50:20.624Z,17.40
2022-10-24T05:53:08.609Z,17.40
2022-10-24T05:55:54.328Z,17.30
2022-10-24T05:58:39.915Z,17.30
2022-10-24T06:01:25.624Z,17.30
2022-10-24T06:04:12.996Z,17.40
2022-10-24T06:06:59.216Z,17.40
2022-10-24T06:09:44.703Z,17.40
2022-10-24T06:12:30.315Z,17.50
2022-10-24T06:15:15.737Z,17.50
2022-10-24T06:18:01.111Z,17.50
2022-10-24T06:20:46.592Z,17.40
2022-10-24T06:23:32.867Z,17.40
2022-10-24T06:26:20.419Z,17.40
2022-10-24T06:29:08.468Z,17.40
2022-10-24T06:31:53.996Z,17.40
2022-10-24T06:34:39.539Z,17.50
2022-10-24T06:37:25.012Z,17.60
2022-10-24T06:40:13.720Z,17.60
2022-10-24T06:42:59.076Z,17.60
2022-10-24T06:45:44.594Z,17.70
2022-10-24T06:48:29.934Z,17.70
2022-10-24T06:51:18.600Z,17.80
2022-10-24T06:54:03.976Z,17.80
2022-10-24T06:56:49.732Z,17.80
2022-10-24T06:59:35.043Z,17.80
2022-10-24T07:02:20.809Z,17.90
2022-10-24T07:05:10.631Z,17.80
2022-10-24T07:07:56.649Z,17.80
2022-10-24T07:10:51.072Z,17.90
2022-10-24T07:13:37.178Z,17.90
2022-10-24T07:16:23.415Z,17.80
2022-10-24T07:19:11.713Z,18.00
2022-10-24T07:21:57.091Z,18.00
2022-10-24T07:24:45.607Z,18.00
2022-10-24T07:27:31.049Z,18.10
2022-10-24T07:30:17.565Z,18.00
2022-10-24T07:33:05.896Z,18.00
2022-10-24T07:35:51.555Z,18.00
2022-10-24T07:38:37.306Z,18.00
2022-10-24T07:41:24.867Z,18.00
2022-10-24T07:44:11.147Z,18.00
2022-10-24T07:46:56.729Z,17.90
2022-10-24T07:49:45.144Z,17.90
2022-10-24T07:52:33.368Z,17.70
2022-10-24T07:55:19.518Z,17.60
2022-10-24T07:58:07.492Z,17.60
2022-10-24T08:00:53.333Z,17.60
2022-10-24T08:03:39.424Z,17.70
2022-10-24T08:06:30.042Z,17.70
2022-10-24T08:09:15.660Z,17.80
2022-10-24T08:12:00.944Z,17.90
2022-10-24T08:14:46.751Z,18.00
2022-10-24T08:17:36.739Z,17.90
2022-10-24T08:20:24.144Z,17.90
2022-10-24T08:23:09.711Z,17.90
2022-10-24T08:25:55.528Z,17.90
2022-10-24T08:28:41.756Z,17.80
2022-10-24T08:31:28.183Z,17.60
2022-10-24T08:34:16.952Z,17.50
2022-10-24T08:37:03.577Z,17.50
2022-10-24T08:39:48.950Z,17.50
2022-10-24T08:42:35.419Z,17.40
2022-10-24T08:45:38.917Z,17.40
2022-10-24T08:48:29.188Z,17.40
2022-10-24T08:51:30.852Z,17.40
2022-10-24T08:54:23.969Z,17.30
2022-10-24T08:57:36.935Z,17.30
2022-10-24T09:00:36.351Z,17.30
2022-10-24T09:03:55.704Z,17.30
2022-10-24T09:06:42.717Z,17.40
2022-10-24T09:09:35.928Z,17.40
2022-10-24T09:12:21.745Z,17.40
2022-10-24T09:15:29.888Z,17.30
2022-10-24T09:18:27.630Z,17.30
2022-10-24T09:21:15.935Z,17.30
2022-10-24T09:24:01.685Z,17.30
2022-10-24T09:26:50.400Z,17.40
2022-10-24T09:29:36.031Z,17.30
2022-10-24T09:32:26.861Z,17.40
2022-10-24T09:35:22.567Z,17.40
2022-10-24T09:38:22.682Z,17.50
2022-10-24T09:41:18.918Z,17.50
2022-10-24T09:44:05.667Z,17.50
2022-10-24T09:46:54.651Z,17.60
2022-10-24T09:49:41.313Z,17.70
2022-10-24T09:52:33.323Z,17.70
2022-10-24T09:55:24.882Z,17.70
2022-10-24T09:58:20.363Z,17.70
2022-10-24T10:01:19.441Z,17.70
2022-10-24T10:04:09.397Z,18.00
2022-10-24T10:06:59.111Z,18.00
2022-10-24T10:09:57.443Z,17.90
2022-10-24T10:12:46.852Z,17.90
2022-10-24T10:15:53.728Z,17.90
2022-10-24T10:18:39.078Z,18.00
2022-10-24T10:21:25.456Z,18.00
2022-10-24T10:24:25.857Z,18.10
2022-10-24T10:27:32.408Z,18.30
2022-10-24T10:30:21.539Z,18.40
2022-10-24T10:33:20.877Z,18.60
2022-10-24T10:36:19.655Z,18.90
2022-10-24T10:39:53.077Z,19.00
2022-10-24T10:43:25.124Z,19.20
2022-10-24T10:46:30.995Z,19.00
2022-10-24T10:49:44.116Z,19.10
2022-10-24T10:52:40.724Z,18.90
2022-10-24T10:55:41.723Z,18.80
2022-10-24T10:58:45.841Z,18.60
2022-10-24T11:01:57.043Z,18.40
2022-10-24T11:04:45.471Z,18.30
2022-10-24T11:08:19.217Z,18.30
2022-10-24T11:11:11.559Z,18.20
2022-10-24T11:14:24.215Z,18.10
2022-10-24T11:17:21.966Z,17.90
2022-10-24T11:20:21.785Z,17.90
2022-10-24T11:23:10.291Z,17.90
2022-10-24T11:26:09.447Z,18.00
2022-10-24T11:28:59.484Z,18.20
2022-10-24T11:34:59.554Z,18.20
2022-10-24T11:37:47.875Z,18.20
2022-10-24T11:40:35.392Z,18.20
2022-10-24T11:43:36.682Z,18.10
2022-10-24T11:46:26.313Z,17.80
2022-10-24T11:49:25.950Z,17.50
2022-10-24T11:52:27.185Z,17.30
2022-10-24T11:55:27.167Z,17.20
2022-10-24T11:58:17.200Z,17.20
2022-10-24T12:01:16.679Z,17.10
2022-10-24T12:04:29.077Z,17.20
2022-10-24T12:07:41.934Z,17.40
2022-10-24T12:10:53.450Z,17.60
2022-10-24T12:13:56.942Z,17.80
2022-10-24T12:17:01.904Z,17.90
2022-10-24T12:19:50.740Z,17.70
2022-10-24T12:22:40.629Z,17.50
2022-10-24T12:25:30.778Z,17.40
2022-10-24T12:28:25.540Z,17.30
2022-10-24T12:31:20.967Z,17.10
2022-10-24T12:34:15.807Z,16.90
2022-10-24T12:37:19.046Z,16.70
2022-10-24T12:40:42.147Z,16.50
2022-10-24T12:43:29.044Z,16.30
2022-10-24T12:46:15.882Z,16.20
2022-10-24T12:49:18.350Z,16.10
2022-10-24T12:52:32.635Z,16.10
2022-10-24T12:55:39.394Z,16.10
2022-10-24T12:58:35.076Z,16.10
2022-10-24T13:01:35.965Z,16.10
2022-10-24T13:04:48.724Z,16.10
2022-10-24T13:08:13.294Z,16.10
2022-10-24T13:11:07.412Z,16.20
2022-10-24T13:14:01.532Z,16.10
2022-10-24T13:17:03.893Z,16.00
2022-10-24T13:20:06.290Z,15.90
2022-10-24T13:23:05.813Z,15.90
2022-10-24T13:25:56.418Z,15.90
2022-10-24T13:28:43.333Z,15.90
2022-10-24T13:31:28.963Z,16.00
2022-10-24T13:34:19.722Z,16.00
2022-10-24T13:37:11.399Z,16.20
2022-10-24T13:40:14.098Z,16.50
2022-10-24T13:43:19.415Z,16.70
2022-10-24T13:46:12.887Z,16.80
2022-10-24T13:49:01.655Z,16.80
2022-10-24T13:51:51.024Z,16.80
2022-10-24T13:54:38.289Z,16.80
2022-10-24T13:57:50.698Z,16.80
2022-10-24T14:00:42.413Z,16.80
2022-10-24T14:03:30.376Z,16.80
2022-10-24T14:06:16.288Z,16.80
2022-10-24T14:09:09.117Z,16.90
2022-10-24T14:11:56.451Z,16.90
2022-10-24T14:14:43.264Z,17.00
2022-10-24T14:17:33.602Z,17.10
2022-10-24T14:20:25.631Z,17.30
2022-10-24T14:23:24.735Z,17.50
2022-10-24T14:26:19.470Z,18.00
2022-10-24T14:29:04.873Z,19.10
2022-10-24T14:31:59.903Z,19.10
2022-10-24T14:34:48.335Z,19.10
2022-10-24T14:37:37.244Z,19.00
2022-10-24T14:40:22.638Z,18.80
2022-10-24T14:43:15.386Z,18.70
2022-10-24T14:46:12.589Z,18.40
2022-10-24T14:49:19.145Z,18.30
2022-10-24T14:52:15.102Z,18.70
2022-10-24T14:55:07.651Z,19.20
2022-10-24T14:57:54.905Z,18.90
2022-10-24T15:00:41.857Z,18.60
2022-10-24T15:03:28.350Z,19.00
2022-10-24T15:06:28.879Z,19.90
2022-10-24T15:09:17.841Z,20.70
2022-10-24T15:12:03.220Z,20.60
2022-10-24T15:14:50.093Z,20.80
2022-10-24T15:17:39.188Z,22.20
2022-10-24T15:20:30.134Z,22.30
2022-10-24T15:23:31.902Z,21.50
2022-10-24T15:26:50.304Z,20.60
2022-10-24T15:29:35.789Z,20.00
2022-10-24T15:32:21.672Z,19.50
2022-10-24T15:35:14.198Z,19.10
2022-10-24T15:38:07.013Z,18.80
2022-10-24T15:40:53.573Z,18.60
2022-10-24T15:43:38.852Z,18.40
2022-10-24T15:46:24.757Z,18.30
2022-10-24T15:49:10.706Z,18.20
2022-10-24T15:51:59.271Z,18.10
2022-10-24T15:54:44.620Z,18.00
2022-10-24T15:57:29.983Z,17.90
2022-10-24T16:00:17.881Z,17.70
2022-10-24T16:03:05.559Z,17.70
2022-10-24T16:05:56.690Z,17.60
2022-10-24T16:08:42.103Z,17.60
2022-10-24T16:11:28.967Z,17.50
2022-10-24T16:14:16.306Z,17.50
2022-10-24T16:17:04.124Z,17.60
2022-10-24T16:19:49.716Z,17.50
2022-10-24T16:22:35.566Z,17.30
2022-10-24T16:25:23.108Z,17.20
2022-10-24T16:28:08.641Z,17.10
2022-10-24T16:30:54.216Z,17.00
2022-10-24T16:33:45.519Z,16.90
2022-10-24T16:36:31.029Z,16.80
2022-10-24T16:39:16.311Z,16.70
2022-10-24T16:42:05.021Z,16.70
2022-10-24T16:44:51.387Z,16.60
2022-10-24T16:47:37.072Z,16.60
2022-10-24T16:50:26.153Z,16.50
2022-10-24T16:53:11.859Z,16.50
2022-10-24T16:55:59.143Z,16.40
2022-10-24T16:58:44.644Z,16.40
2022-10-24T17:01:30.113Z,16.30
2022-10-24T17:04:16.471Z,16.30
2022-10-24T17:07:05.243Z,16.20
2022-10-24T17:09:50.771Z,16.20
2022-10-24T17:12:36.486Z,16.10
2022-10-24T17:15:22.892Z,16.10
2022-10-24T17:18:09.031Z,16.00
2022-10-24T17:21:02.579Z,16.00
2022-10-24T17:23:48.319Z,15.90
2022-10-24T17:26:33.763Z,15.90
2022-10-24T17:29:23.491Z,15.90
2022-10-24T17:32:11.100Z,15.90
2022-10-24T17:34:58.606Z,15.90
2022-10-24T17:37:44.098Z,16.00
2022-10-24T17:40:41.028Z,16.00
2022-10-24T17:43:28.168Z,15.90
2022-10-24T17:46:14.092Z,16.00
2022-10-24T17:48:59.740Z,15.90
2022-10-24T17:51:47.108Z,16.00
2022-10-24T17:54:32.541Z,16.00
2022-10-24T17:57:23.040Z,16.00
2022-10-24T18:00:09.216Z,16.00
2022-10-24T18:02:56.659Z,16.00
2022-10-24T18:05:47.350Z,16.00
2022-10-24T18:08:33.016Z,16.00
2022-10-24T18:11:20.299Z,16.00
2022-10-24T18:14:05.971Z,16.10
2022-10-24T18:16:51.364Z,16.00
2022-10-24T18:19:36.916Z,16.00
2022-10-24T18:22:25.157Z,16.00
2022-10-24T18:25:12.863Z,15.90
2022-10-24T18:27:59.307Z,15.90
2022-10-24T18:30:44.479Z,15.80
2022-10-24T18:33:32.838Z,15.80
2022-10-24T18:36:26.106Z,15.90
2022-10-24T18:39:13.198Z,15.80
2022-10-24T18:42:04.006Z,15.80
2022-10-24T18:44:51.120Z,15.80
2022-10-24T18:47:36.841Z,15.70
2022-10-24T18:50:24.632Z,15.70
2022-10-24T18:53:28.578Z,15.70
2022-10-24T18:56:23.660Z,15.70
2022-10-24T18:59:20.002Z,15.70
2022-10-24T19:02:06.725Z,15.60
2022-10-24T19:05:17.759Z,15.70
2022-10-24T19:08:03.614Z,15.70
2022-10-24T19:10:51.728Z,15.70
2022-10-24T19:13:37.270Z,15.70
2022-10-24T19:16:28.727Z,15.60
2022-10-24T19:19:28.085Z,15.60
2022-10-24T19:22:13.384Z,15.60
2022-10-24T19:24:59.106Z,15.50
2022-10-24T19:27:45.037Z,15.40
2022-10-24T19:30:30.577Z,15.40
2022-10-24T19:33:18.891Z,15.30
2022-10-24T19:36:05.668Z,15.30
2022-10-24T19:38:55.788Z,15.30
2022-10-24T19:41:42.301Z,15.30
2022-10-24T19:44:27.664Z,15.30
2022-10-24T19:47:16.326Z,15.30
2022-10-24T19:50:01.862Z,15.30
2022-10-24T19:52:47.399Z,15.30
2022-10-24T19:55:37.388Z,15.30
2022-10-24T19:58:22.812Z,15.30
2022-10-24T20:01:13.843Z,15.30
2022-10-24T20:04:00.327Z,15.40
2022-10-24T20:06:48.074Z,15.40
2022-10-24T20:09:33.914Z,15.40
2022-10-24T20:12:19.314Z,15.30
2022-10-24T20:15:04.860Z,15.40
2022-10-24T20:17:50.116Z,15.30
2022-10-24T20:20:36.496Z,15.40
2022-10-24T20:23:23.260Z,15.40
2022-10-24T20:26:11.386Z,15.40
2022-10-24T20:28:58.086Z,15.40
2022-10-24T20:31:46.420Z,15.50
2022-10-24T20:34:32.009Z,15.40
2022-10-24T20:37:17.563Z,15.40
2022-10-24T20:40:02.979Z,15.40
2022-10-24T20:42:50.399Z,15.40
2022-10-24T20:45:40.527Z,15.40
2022-10-24T20:48:26.226Z,15.40
2022-10-24T20:51:16.737Z,15.30
2022-10-24T20:54:02.616Z,15.20
2022-10-24T20:56:47.922Z,15.20
2022-10-24T20:59:33.547Z,15.10
2022-10-24T21:02:19.247Z,15.10
2022-10-24T21:05:05.803Z,15.10
2022-10-24T21:07:51.831Z,15.20
2022-10-24T21:10:37.456Z,15.20
2022-10-24T21:13:25.794Z,15.10
2022-10-24T21:16:15.123Z,15.10
2022-10-24T21:19:01.322Z,15.00
2022-10-24T21:21:46.895Z,15.10
2022-10-24T21:24:32.333Z,15.10
2022-10-24T21:27:17.660Z,15.20
2022-10-24T21:30:03.144Z,15.20
2022-10-24T21:32:54.226Z,15.10
2022-10-24T21:35:39.598Z,15.20
2022-10-24T21:38:28.608Z,15.10
2022-10-24T21:41:18.088Z,15.00
2022-10-24T21:44:04.040Z,15.00
2022-10-24T21:46:51.879Z,15.00
2022-10-24T21:49:37.423Z,15.00
2022-10-24T21:52:22.890Z,15.00
2022-10-24T21:55:08.607Z,14.90
2022-10-24T21:57:57.120Z,14.90
2022-10-24T22:00:42.707Z,15.00
2022-10-24T22:03:28.248Z,14.90
2022-10-24T22:06:16.307Z,14.90
2022-10-24T22:09:02.233Z,14.90
2022-10-24T22:11:47.756Z,14.80
2022-10-24T22:14:33.352Z,14.90
2022-10-24T22:17:18.761Z,14.80
2022-10-24T22:20:04.342Z,14.80
2022-10-24T22:22:51.506Z,14.80
2022-10-24T22:25:36.973Z,14.90
2022-10-24T22:28:22.532Z,14.90
2022-10-24T22:31:09.157Z,15.00
2022-10-24T22:33:55.453Z,15.10
2022-10-24T22:36:55.750Z,15.20
2022-10-24T22:39:42.111Z,15.20
2022-10-24T22:42:28.016Z,15.30
2022-10-24T22:45:14.157Z,15.30
2022-10-24T22:48:34.368Z,15.30
2022-10-24T22:51:20.707Z,15.30
2022-10-24T22:54:13.713Z,15.40
2022-10-24T22:56:59.326Z,15.50
2022-10-24T22:59:45.181Z,15.50
2022-10-24T23:02:36.729Z,15.50
2022-10-24T23:06:00.053Z,15.60
2022-10-24T23:08:46.048Z,15.60
2022-10-24T23:11:31.760Z,15.70
2022-10-24T23:17:02.596Z,15.70
2022-10-24T23:19:48.247Z,15.70
2022-10-24T23:22:33.768Z,15.70
2022-10-24T23:25:19.540Z,15.70
2022-10-24T23:28:04.887Z,15.80
2022-10-24T23:30:50.654Z,15.80
2022-10-24T23:33:36.043Z,15.80
2022-10-24T23:36:25.319Z,15.80
2022-10-24T23:39:14.213Z,15.90
2022-10-24T23:42:00.982Z,15.90
2022-10-24T23:44:46.592Z,15.80
2022-10-24T23:47:57.913Z,15.80
2022-10-24T23:50:58.188Z,15.80
2022-10-24T23:53:53.276Z,15.80
2022-10-24T23:56:39.727Z,15.90
2022-10-24T23:59:25.211Z,15.90
